sensor_id;sensor_type;location;lat;lon;timestamp;pressure;altitude;pressure_sealevel;temperature;humidity
63194;BME280;49289;51.670;5.624;2023-03-21T00:00:21;101826.80;;;16.52;59.49
63194;BME280;49289;51.670;5.624;2023-03-21T00:02:09;101811.73;;;16.27;59.61
63194;BME280;49289;51.670;5.624;2023-03-21T00:03:57;101808.53;;;16.41;59.68
63194;BME280;49289;51.670;5.624;2023-03-21T00:05:46;101820.92;;;16.03;60.47
63194;BME280;49289;51.670;5.624;2023-03-21T00:07:33;101827.80;;;15.82;61.69
63194;BME280;49289;51.670;5.624;2023-03-21T00:09:20;101803.58;;;16.06;60.80
63194;BME280;49289;51.670;5.624;2023-03-21T00:11:08;101812.06;;;15.58;61.56
63194;BME280;49289;51.670;5.624;2023-03-21T00:12:55;101801.52;;;16.17;60.56
63194;BME280;49289;51.670;5.624;2023-03-21T00:14:44;101815.79;;;16.08;61.14
63194;BME280;49289;51.670;5.624;2023-03-21T00:16:31;101795.30;;;16.23;60.14
63194;BME280;49289;51.670;5.624;2023-03-21T00:18:18;101807.39;;;16.51;59.58
63194;BME280;49289;51.670;5.624;2023-03-21T00:20:05;101796.74;;;15.91;60.56
63194;BME280;49289;51.670;5.624;2023-03-21T00:21:52;101805.25;;;16.26;60.16
63194;BME280;49289;51.670;5.624;2023-03-21T00:23:39;101783.48;;;16.37;59.58
63194;BME280;49289;51.670;5.624;2023-03-21T00:25:26;101785.85;;;16.51;58.66
63194;BME280;49289;51.670;5.624;2023-03-21T00:27:13;101790.05;;;15.91;60.25
63194;BME280;49289;51.670;5.624;2023-03-21T00:29:00;101802.97;;;16.38;59.38
63194;BME280;49289;51.670;5.624;2023-03-21T00:30:47;101802.31;;;16.21;59.87
63194;BME280;49289;51.670;5.624;2023-03-21T00:32:34;101800.75;;;16.31;59.57
63194;BME280;49289;51.670;5.624;2023-03-21T00:34:21;101787.23;;;15.94;60.68
63194;BME280;49289;51.670;5.624;2023-03-21T00:36:08;101796.47;;;16.29;59.84
63194;BME280;49289;51.670;5.624;2023-03-21T00:37:55;101780.20;;;15.92;60.77
63194;BME280;49289;51.670;5.624;2023-03-21T00:39:42;101798.42;;;16.18;60.47
63194;BME280;49289;51.670;5.624;2023-03-21T00:41:29;101779.78;;;15.53;62.38
63194;BME280;49289;51.670;5.624;2023-03-21T00:43:16;101780.33;;;15.57;62.28
63194;BME280;49289;51.670;5.624;2023-03-21T00:45:03;101782.76;;;15.58;62.71
63194;BME280;49289;51.670;5.624;2023-03-21T00:46:50;101778.31;;;15.78;62.56
63194;BME280;49289;51.670;5.624;2023-03-21T00:48:37;101794.73;;;15.64;62.96
63194;BME280;49289;51.670;5.624;2023-03-21T00:50:24;101788.38;;;15.96;62.36
63194;BME280;49289;51.670;5.624;2023-03-21T00:52:11;101792.94;;;16.08;62.19
63194;BME280;49289;51.670;5.624;2023-03-21T00:53:58;101787.43;;;16.09;61.98
63194;BME280;49289;51.670;5.624;2023-03-21T00:55:45;101786.41;;;16.11;61.85
63194;BME280;49289;51.670;5.624;2023-03-21T00:57:32;101764.58;;;15.71;62.68
63194;BME280;49289;51.670;5.624;2023-03-21T00:59:19;101766.13;;;15.28;63.77
63194;BME280;49289;51.670;5.624;2023-03-21T01:01:06;101759.56;;;15.54;63.37
63194;BME280;49289;51.670;5.624;2023-03-21T01:02:53;101775.72;;;15.91;62.93
63194;BME280;49289;51.670;5.624;2023-03-21T01:04:40;101770.71;;;16.12;61.95
63194;BME280;49289;51.670;5.624;2023-03-21T01:06:27;101750.30;;;15.94;62.21
63194;BME280;49289;51.670;5.624;2023-03-21T01:08:15;101747.59;;;16.17;61.56
63194;BME280;49289;51.670;5.624;2023-03-21T01:10:01;101749.78;;;16.12;61.46
63194;BME280;49289;51.670;5.624;2023-03-21T01:11:48;101746.11;;;16.34;61.02
63194;BME280;49289;51.670;5.624;2023-03-21T01:13:35;101744.94;;;16.06;61.60
63194;BME280;49289;51.670;5.624;2023-03-21T01:15:23;101749.38;;;15.60;62.69
63194;BME280;49289;51.670;5.624;2023-03-21T01:17:11;101761.94;;;15.97;62.67
63194;BME280;49289;51.670;5.624;2023-03-21T01:18:59;101742.95;;;15.80;62.42
63194;BME280;49289;51.670;5.624;2023-03-21T01:20:47;101756.72;;;16.29;61.25
63194;BME280;49289;51.670;5.624;2023-03-21T01:22:35;101753.83;;;16.00;62.21
63194;BME280;49289;51.670;5.624;2023-03-21T01:24:23;101732.14;;;16.09;61.64
63194;BME280;49289;51.670;5.624;2023-03-21T01:26:11;101727.71;;;16.39;60.93
63194;BME280;49289;51.670;5.624;2023-03-21T01:27:58;101725.66;;;16.34;60.85
63194;BME280;49289;51.670;5.624;2023-03-21T01:29:45;101724.16;;;15.84;61.94
63194;BME280;49289;51.670;5.624;2023-03-21T01:31:32;101720.44;;;16.32;60.67
63194;BME280;49289;51.670;5.624;2023-03-21T01:33:20;101743.33;;;16.62;60.29
63194;BME280;49289;51.670;5.624;2023-03-21T01:35:06;101723.20;;;16.27;60.50
63194;BME280;49289;51.670;5.624;2023-03-21T01:36:53;101735.42;;;16.26;60.80
63194;BME280;49289;51.670;5.624;2023-03-21T01:38:40;101724.21;;;16.01;61.23
63194;BME280;49289;51.670;5.624;2023-03-21T01:40:28;101741.47;;;15.73;62.32
63194;BME280;49289;51.670;5.624;2023-03-21T01:42:17;101716.84;;;15.81;61.78
63194;BME280;49289;51.670;5.624;2023-03-21T01:44:04;101710.27;;;16.09;60.96
63194;BME280;49289;51.670;5.624;2023-03-21T01:46:18;101720.86;;;16.04;61.02
63194;BME280;49289;51.670;5.624;2023-03-21T01:48:04;101719.03;;;16.11;60.94
63194;BME280;49289;51.670;5.624;2023-03-21T01:49:53;101703.57;;;15.92;60.76
63194;BME280;49289;51.670;5.624;2023-03-21T01:51:40;101703.12;;;15.62;61.64
63194;BME280;49289;51.670;5.624;2023-03-21T01:53:28;101714.16;;;16.00;61.27
63194;BME280;49289;51.670;5.624;2023-03-21T01:55:15;101694.08;;;16.13;60.12
63194;BME280;49289;51.670;5.624;2023-03-21T01:57:05;101711.17;;;16.63;59.25
63194;BME280;49289;51.670;5.624;2023-03-21T01:58:52;101707.38;;;16.56;58.80
63194;BME280;49289;51.670;5.624;2023-03-21T02:00:40;101708.69;;;16.73;58.50
63194;BME280;49289;51.670;5.624;2023-03-21T02:02:28;101707.94;;;16.99;57.91
63194;BME280;49289;51.670;5.624;2023-03-21T02:04:15;101687.70;;;16.61;58.46
63194;BME280;49289;51.670;5.624;2023-03-21T02:06:03;101702.53;;;16.47;58.99
63194;BME280;49289;51.670;5.624;2023-03-21T02:07:50;101694.06;;;16.62;58.63
63194;BME280;49289;51.670;5.624;2023-03-21T02:09:35;101679.03;;;16.71;58.09
63194;BME280;49289;51.670;5.624;2023-03-21T02:11:22;101676.48;;;17.09;57.25
63194;BME280;49289;51.670;5.624;2023-03-21T02:13:09;101679.50;;;16.79;57.59
63194;BME280;49289;51.670;5.624;2023-03-21T02:14:56;101673.60;;;17.10;56.94
63194;BME280;49289;51.670;5.624;2023-03-21T02:16:49;101688.28;;;17.42;56.48
63194;BME280;49289;51.670;5.624;2023-03-21T02:18:37;101685.48;;;16.77;57.55
63194;BME280;49289;51.670;5.624;2023-03-21T02:20:41;101688.50;;;16.75;57.82
63194;BME280;49289;51.670;5.624;2023-03-21T02:22:41;101671.92;;;17.01;56.89
63194;BME280;49289;51.670;5.624;2023-03-21T02:24:47;101677.98;;;17.18;56.42
63194;BME280;49289;51.670;5.624;2023-03-21T02:26:59;101679.78;;;17.21;56.39
63194;BME280;49289;51.670;5.624;2023-03-21T02:28:47;101679.53;;;17.39;55.95
63194;BME280;49289;51.670;5.624;2023-03-21T02:30:54;101653.48;;;17.17;56.05
63194;BME280;49289;51.670;5.624;2023-03-21T02:32:45;101654.42;;;17.15;55.91
63194;BME280;49289;51.670;5.624;2023-03-21T02:34:41;101650.69;;;16.97;56.11
63194;BME280;49289;51.670;5.624;2023-03-21T02:36:32;101660.03;;;16.84;56.85
63194;BME280;49289;51.670;5.624;2023-03-21T02:38:19;101652.05;;;16.82;56.72
63194;BME280;49289;51.670;5.624;2023-03-21T02:40:13;101651.98;;;16.62;57.20
63194;BME280;49289;51.670;5.624;2023-03-21T02:42:00;101648.70;;;16.91;56.56
63194;BME280;49289;51.670;5.624;2023-03-21T02:43:49;101651.45;;;17.06;56.08
63194;BME280;49289;51.670;5.624;2023-03-21T02:45:37;101661.19;;;17.25;55.80
63194;BME280;49289;51.670;5.624;2023-03-21T02:47:24;101659.58;;;17.06;56.26
63194;BME280;49289;51.670;5.624;2023-03-21T02:49:13;101641.91;;;16.72;57.01
63194;BME280;49289;51.670;5.624;2023-03-21T02:50:59;101659.58;;;16.69;56.95
63194;BME280;49289;51.670;5.624;2023-03-21T02:52:46;101646.13;;;16.59;57.36
63194;BME280;49289;51.670;5.624;2023-03-21T02:54:32;101643.83;;;16.51;57.60
63194;BME280;49289;51.670;5.624;2023-03-21T02:56:21;101659.63;;;16.94;56.85
63194;BME280;49289;51.670;5.624;2023-03-21T02:58:09;101664.48;;;16.69;57.61
63194;BME280;49289;51.670;5.624;2023-03-21T02:59:57;101660.75;;;16.79;57.29
63194;BME280;49289;51.670;5.624;2023-03-21T03:01:44;101655.84;;;16.72;57.21
63194;BME280;49289;51.670;5.624;2023-03-21T03:03:31;101641.62;;;16.73;57.17
63194;BME280;49289;51.670;5.624;2023-03-21T03:05:25;101659.30;;;16.74;57.43
63194;BME280;49289;51.670;5.624;2023-03-21T03:07:17;101641.23;;;16.68;57.58
63194;BME280;49289;51.670;5.624;2023-03-21T03:09:18;101636.33;;;16.88;57.06
63194;BME280;49289;51.670;5.624;2023-03-21T03:11:14;101635.77;;;16.71;57.39
63194;BME280;49289;51.670;5.624;2023-03-21T03:13:02;101631.97;;;16.89;57.12
63194;BME280;49289;51.670;5.624;2023-03-21T03:14:53;101651.23;;;16.99;57.11
63194;BME280;49289;51.670;5.624;2023-03-21T03:16:42;101636.86;;;16.69;57.54
63194;BME280;49289;51.670;5.624;2023-03-21T03:18:31;101624.25;;;16.80;57.27
63194;BME280;49289;51.670;5.624;2023-03-21T03:20:26;101633.09;;;16.67;57.48
63194;BME280;49289;51.670;5.624;2023-03-21T03:22:14;101651.45;;;16.69;57.64
63194;BME280;49289;51.670;5.624;2023-03-21T03:24:03;101648.33;;;16.79;57.44
63194;BME280;49289;51.670;5.624;2023-03-21T03:25:50;101621.50;;;16.74;57.39
63194;BME280;49289;51.670;5.624;2023-03-21T03:27:38;101623.49;;;16.74;57.37
63194;BME280;49289;51.670;5.624;2023-03-21T03:29:24;101642.23;;;16.88;57.14
63194;BME280;49289;51.670;5.624;2023-03-21T03:31:10;101618.78;;;16.89;56.97
63194;BME280;49289;51.670;5.624;2023-03-21T03:32:59;101621.90;;;16.79;57.26
63194;BME280;49289;51.670;5.624;2023-03-21T03:34:48;101617.38;;;16.83;57.20
63194;BME280;49289;51.670;5.624;2023-03-21T03:36:37;101634.69;;;16.92;57.30
63194;BME280;49289;51.670;5.624;2023-03-21T03:38:22;101617.19;;;16.91;56.94
63194;BME280;49289;51.670;5.624;2023-03-21T03:40:10;101620.06;;;16.65;57.47
63194;BME280;49289;51.670;5.624;2023-03-21T03:41:58;101632.39;;;16.83;57.38
63194;BME280;49289;51.670;5.624;2023-03-21T03:43:45;101610.27;;;16.72;57.46
63194;BME280;49289;51.670;5.624;2023-03-21T03:45:32;101627.56;;;16.92;57.25
63194;BME280;49289;51.670;5.624;2023-03-21T03:47:21;101622.98;;;16.97;57.30
63194;BME280;49289;51.670;5.624;2023-03-21T03:49:09;101603.98;;;16.87;57.37
63194;BME280;49289;51.670;5.624;2023-03-21T03:50:59;101621.25;;;16.97;57.16
63194;BME280;49289;51.670;5.624;2023-03-21T03:52:47;101621.31;;;16.90;57.23
63194;BME280;49289;51.670;5.624;2023-03-21T03:54:35;101620.68;;;16.95;57.12
63194;BME280;49289;51.670;5.624;2023-03-21T03:56:22;101607.41;;;16.66;57.36
63194;BME280;49289;51.670;5.624;2023-03-21T03:58:10;101597.91;;;16.86;56.87
63194;BME280;49289;51.670;5.624;2023-03-21T03:59:57;101600.66;;;16.79;56.85
63194;BME280;49289;51.670;5.624;2023-03-21T04:01:45;101601.24;;;16.84;56.91
63194;BME280;49289;51.670;5.624;2023-03-21T04:03:32;101616.60;;;17.02;56.54
63194;BME280;49289;51.670;5.624;2023-03-21T04:05:19;101598.02;;;16.84;56.67
63194;BME280;49289;51.670;5.624;2023-03-21T04:07:08;101610.21;;;17.05;56.37
63194;BME280;49289;51.670;5.624;2023-03-21T04:08:56;101611.05;;;17.15;56.24
63194;BME280;49289;51.670;5.624;2023-03-21T04:10:43;101606.08;;;16.91;56.62
63194;BME280;49289;51.670;5.624;2023-03-21T04:12:31;101590.75;;;16.61;56.92
63194;BME280;49289;51.670;5.624;2023-03-21T04:14:19;101604.33;;;16.94;56.56
63194;BME280;49289;51.670;5.624;2023-03-21T04:16:08;101590.33;;;17.01;56.19
63194;BME280;49289;51.670;5.624;2023-03-21T04:17:56;101594.39;;;16.80;56.48
63194;BME280;49289;51.670;5.624;2023-03-21T04:19:44;101594.25;;;16.89;56.30
63194;BME280;49289;51.670;5.624;2023-03-21T04:21:32;101609.58;;;16.59;56.86
63194;BME280;49289;51.670;5.624;2023-03-21T04:23:20;101605.38;;;16.32;57.69
63194;BME280;49289;51.670;5.624;2023-03-21T04:25:08;101588.70;;;16.53;57.08
63194;BME280;49289;51.670;5.624;2023-03-21T04:26:55;101581.19;;;16.65;56.85
63194;BME280;49289;51.670;5.624;2023-03-21T04:28:42;101583.98;;;16.78;56.46
63194;BME280;49289;51.670;5.624;2023-03-21T04:30:29;101595.73;;;16.92;56.33
63194;BME280;49289;51.670;5.624;2023-03-21T04:32:16;101594.32;;;16.88;56.29
63194;BME280;49289;51.670;5.624;2023-03-21T04:34:04;101581.65;;;16.95;56.09
63194;BME280;49289;51.670;5.624;2023-03-21T04:35:51;101595.16;;;16.98;56.15
63194;BME280;49289;51.670;5.624;2023-03-21T04:37:39;101574.16;;;16.79;56.22
63194;BME280;49289;51.670;5.624;2023-03-21T04:39:27;101594.95;;;16.97;55.91
63194;BME280;49289;51.670;5.624;2023-03-21T04:41:16;101591.85;;;17.04;55.91
63194;BME280;49289;51.670;5.624;2023-03-21T04:43:04;101587.81;;;16.65;56.70
63194;BME280;49289;51.670;5.624;2023-03-21T04:44:52;101579.39;;;16.85;56.12
63194;BME280;49289;51.670;5.624;2023-03-21T04:46:40;101575.86;;;16.93;55.63
63194;BME280;49289;51.670;5.624;2023-03-21T04:48:27;101585.72;;;17.07;55.61
63194;BME280;49289;51.670;5.624;2023-03-21T04:50:16;101589.53;;;16.96;55.88
63194;BME280;49289;51.670;5.624;2023-03-21T04:52:03;101570.94;;;16.80;56.13
63194;BME280;49289;51.670;5.624;2023-03-21T04:53:50;101581.94;;;16.76;56.50
63194;BME280;49289;51.670;5.624;2023-03-21T04:55:37;101561.45;;;16.69;56.39
63194;BME280;49289;51.670;5.624;2023-03-21T04:57:24;101577.05;;;16.84;56.27
63194;BME280;49289;51.670;5.624;2023-03-21T04:59:12;101559.74;;;16.85;56.17
63194;BME280;49289;51.670;5.624;2023-03-21T05:00:58;101573.17;;;16.88;56.18
63194;BME280;49289;51.670;5.624;2023-03-21T05:02:45;101572.54;;;16.93;56.44
63194;BME280;49289;51.670;5.624;2023-03-21T05:04:32;101549.63;;;16.80;56.46
63194;BME280;49289;51.670;5.624;2023-03-21T05:06:20;101554.16;;;16.72;56.55
63194;BME280;49289;51.670;5.624;2023-03-21T05:08:08;101572.36;;;16.78;56.70
63194;BME280;49289;51.670;5.624;2023-03-21T05:09:56;101552.78;;;16.65;56.65
63194;BME280;49289;51.670;5.624;2023-03-21T05:11:43;101567.88;;;16.82;56.54
63194;BME280;49289;51.670;5.624;2023-03-21T05:13:31;101570.48;;;16.83;56.55
63194;BME280;49289;51.670;5.624;2023-03-21T05:15:19;101568.72;;;16.52;56.88
63194;BME280;49289;51.670;5.624;2023-03-21T05:17:08;101551.84;;;16.53;57.06
63194;BME280;49289;51.670;5.624;2023-03-21T05:18:56;101553.33;;;16.47;57.02
63194;BME280;49289;51.670;5.624;2023-03-21T05:20:44;101552.12;;;16.42;57.38
63194;BME280;49289;51.670;5.624;2023-03-21T05:22:32;101549.70;;;16.67;56.74
63194;BME280;49289;51.670;5.624;2023-03-21T05:24:20;101562.65;;;16.82;56.48
63194;BME280;49289;51.670;5.624;2023-03-21T05:26:07;101565.14;;;16.88;56.18
63194;BME280;49289;51.670;5.624;2023-03-21T05:27:54;101546.72;;;16.76;56.14
63194;BME280;49289;51.670;5.624;2023-03-21T05:29:41;101546.66;;;16.85;56.03
63194;BME280;49289;51.670;5.624;2023-03-21T05:31:28;101563.32;;;16.82;55.99
63194;BME280;49289;51.670;5.624;2023-03-21T05:33:15;101561.08;;;16.92;55.84
63194;BME280;49289;51.670;5.624;2023-03-21T05:35:02;101542.42;;;16.92;55.73
63194;BME280;49289;51.670;5.624;2023-03-21T05:36:49;101564.31;;;17.10;55.39
63194;BME280;49289;51.670;5.624;2023-03-21T05:38:37;101545.48;;;16.80;55.72
63194;BME280;49289;51.670;5.624;2023-03-21T05:40:25;101546.34;;;16.78;55.88
63194;BME280;49289;51.670;5.624;2023-03-21T05:42:13;101544.66;;;16.62;56.02
63194;BME280;49289;51.670;5.624;2023-03-21T05:44:01;101559.17;;;16.61;56.30
63194;BME280;49289;51.670;5.624;2023-03-21T05:45:49;101557.41;;;16.65;56.29
63194;BME280;49289;51.670;5.624;2023-03-21T05:47:36;101543.12;;;16.52;56.19
63194;BME280;49289;51.670;5.624;2023-03-21T05:49:24;101556.77;;;16.63;56.20
63194;BME280;49289;51.670;5.624;2023-03-21T05:51:11;101542.94;;;16.49;56.33
63194;BME280;49289;51.670;5.624;2023-03-21T05:52:59;101562.61;;;16.56;56.26
63194;BME280;49289;51.670;5.624;2023-03-21T05:54:46;101557.10;;;16.68;56.04
63194;BME280;49289;51.670;5.624;2023-03-21T05:56:34;101559.63;;;16.69;55.88
63194;BME280;49289;51.670;5.624;2023-03-21T05:58:22;101559.31;;;16.91;55.54
63194;BME280;49289;51.670;5.624;2023-03-21T06:00:11;101557.94;;;17.04;55.24
63194;BME280;49289;51.670;5.624;2023-03-21T06:01:59;101550.98;;;16.99;55.37
63194;BME280;49289;51.670;5.624;2023-03-21T06:03:47;101556.78;;;17.08;55.21
63194;BME280;49289;51.670;5.624;2023-03-21T06:05:35;101555.34;;;17.06;55.03
63194;BME280;49289;51.670;5.624;2023-03-21T06:07:23;101534.42;;;17.05;54.82
63194;BME280;49289;51.670;5.624;2023-03-21T06:09:11;101536.77;;;17.13;54.76
63194;BME280;49289;51.670;5.624;2023-03-21T06:11:00;101537.12;;;17.04;54.88
63194;BME280;49289;51.670;5.624;2023-03-21T06:12:48;101540.86;;;17.08;54.79
63194;BME280;49289;51.670;5.624;2023-03-21T06:14:36;101551.47;;;17.26;54.45
63194;BME280;49289;51.670;5.624;2023-03-21T06:16:24;101538.66;;;17.02;54.48
63194;BME280;49289;51.670;5.624;2023-03-21T06:18:12;101533.34;;;17.19;54.30
63194;BME280;49289;51.670;5.624;2023-03-21T06:20:00;101554.63;;;17.17;54.01
63194;BME280;49289;51.670;5.624;2023-03-21T06:21:48;101536.43;;;16.91;54.78
63194;BME280;49289;51.670;5.624;2023-03-21T06:23:36;101540.61;;;17.21;54.18
63194;BME280;49289;51.670;5.624;2023-03-21T06:25:23;101542.49;;;16.70;54.92
63194;BME280;49289;51.670;5.624;2023-03-21T06:27:10;101559.61;;;17.15;54.53
63194;BME280;49289;51.670;5.624;2023-03-21T06:28:57;101563.42;;;17.15;54.17
63194;BME280;49289;51.670;5.624;2023-03-21T06:30:44;101550.30;;;17.03;54.66
63194;BME280;49289;51.670;5.624;2023-03-21T06:32:31;101543.17;;;16.70;55.27
63194;BME280;49289;51.670;5.624;2023-03-21T06:34:18;101541.56;;;17.09;54.36
63194;BME280;49289;51.670;5.624;2023-03-21T06:36:05;101549.80;;;17.17;54.07
63194;BME280;49289;51.670;5.624;2023-03-21T06:37:52;101547.27;;;17.19;54.08
63194;BME280;49289;51.670;5.624;2023-03-21T06:39:39;101547.74;;;16.81;54.93
63194;BME280;49289;51.670;5.624;2023-03-21T06:41:26;101560.88;;;16.93;54.97
63194;BME280;49289;51.670;5.624;2023-03-21T06:43:13;101566.05;;;16.85;54.75
63194;BME280;49289;51.670;5.624;2023-03-21T06:45:00;101538.13;;;16.82;55.07
63194;BME280;49289;51.670;5.624;2023-03-21T06:46:47;101546.38;;;17.06;54.34
63194;BME280;49289;51.670;5.624;2023-03-21T06:48:34;101548.03;;;17.06;54.34
63194;BME280;49289;51.670;5.624;2023-03-21T06:50:22;101545.13;;;17.39;53.65
63194;BME280;49289;51.670;5.624;2023-03-21T06:52:09;101561.58;;;16.85;54.87
63194;BME280;49289;51.670;5.624;2023-03-21T06:53:56;101547.12;;;17.06;54.49
63194;BME280;49289;51.670;5.624;2023-03-21T06:55:47;101548.98;;;17.04;54.47
63194;BME280;49289;51.670;5.624;2023-03-21T06:59:18;101549.44;;;17.12;53.98
63194;BME280;49289;51.670;5.624;2023-03-21T07:01:05;101546.69;;;16.96;54.63
63194;BME280;49289;51.670;5.624;2023-03-21T07:02:52;101545.77;;;17.18;54.52
63194;BME280;49289;51.670;5.624;2023-03-21T07:04:39;101544.25;;;16.77;55.98
63194;BME280;49289;51.670;5.624;2023-03-21T07:06:26;101545.78;;;17.15;55.11
63194;BME280;49289;51.670;5.624;2023-03-21T07:08:13;101569.02;;;17.35;55.20
63194;BME280;49289;51.670;5.624;2023-03-21T07:10:00;101570.00;;;16.54;57.29
63194;BME280;49289;51.670;5.624;2023-03-21T07:11:47;101549.56;;;16.46;58.40
63194;BME280;49289;51.670;5.624;2023-03-21T07:13:34;101566.78;;;17.03;57.08
63194;BME280;49289;51.670;5.624;2023-03-21T07:15:21;101564.23;;;16.82;57.88
63194;BME280;49289;51.670;5.624;2023-03-21T07:17:09;101550.91;;;16.55;58.78
63194;BME280;49289;51.670;5.624;2023-03-21T07:18:57;101563.84;;;16.13;59.68
63194;BME280;49289;51.670;5.624;2023-03-21T07:20:46;101581.22;;;16.16;60.84
63194;BME280;49289;51.670;5.624;2023-03-21T07:22:34;101560.33;;;16.42;60.10
63194;BME280;49289;51.670;5.624;2023-03-21T07:24:22;101563.05;;;16.54;59.53
63194;BME280;49289;51.670;5.624;2023-03-21T07:26:10;101567.32;;;15.89;61.40
63194;BME280;49289;51.670;5.624;2023-03-21T07:27:57;101587.52;;;15.92;61.43
63194;BME280;49289;51.670;5.624;2023-03-21T07:29:44;101575.23;;;16.04;61.40
63194;BME280;49289;51.670;5.624;2023-03-21T07:31:32;101588.16;;;15.92;62.26
63194;BME280;49289;51.670;5.624;2023-03-21T07:33:20;101576.88;;;16.22;61.70
63194;BME280;49289;51.670;5.624;2023-03-21T07:34:52;101570.26;;;14.91;63.98
63194;BME280;49289;51.670;5.624;2023-03-21T07:36:39;101586.63;;;15.19;64.92
63194;BME280;49289;51.670;5.624;2023-03-21T07:38:26;101580.28;;;15.65;63.84
63194;BME280;49289;51.670;5.624;2023-03-21T07:40:15;101576.59;;;15.89;63.54
63194;BME280;49289;51.670;5.624;2023-03-21T07:42:01;101576.16;;;15.71;64.10
63194;BME280;49289;51.670;5.624;2023-03-21T07:43:48;101579.25;;;15.59;64.72
63194;BME280;49289;51.670;5.624;2023-03-21T07:45:35;101589.13;;;15.93;63.96
63194;BME280;49289;51.670;5.624;2023-03-21T07:47:22;101594.53;;;16.07;63.15
63194;BME280;49289;51.670;5.624;2023-03-21T07:49:10;101591.34;;;16.20;63.18
63194;BME280;49289;51.670;5.624;2023-03-21T07:50:58;101573.55;;;16.44;62.54
63194;BME280;49289;51.670;5.624;2023-03-21T07:52:46;101587.55;;;16.30;63.29
63194;BME280;49289;51.670;5.624;2023-03-21T07:54:34;101586.17;;;16.34;62.61
63194;BME280;49289;51.670;5.624;2023-03-21T07:56:22;101577.16;;;16.43;62.36
63194;BME280;49289;51.670;5.624;2023-03-21T07:58:10;101575.50;;;16.32;63.02
63194;BME280;49289;51.670;5.624;2023-03-21T07:59:58;101583.78;;;16.74;62.16
63194;BME280;49289;51.670;5.624;2023-03-21T08:01:46;101582.39;;;16.63;61.84
63194;BME280;49289;51.670;5.624;2023-03-21T08:03:34;101568.66;;;16.08;62.89
63194;BME280;49289;51.670;5.624;2023-03-21T08:05:23;101579.55;;;16.46;63.01
63194;BME280;49289;51.670;5.624;2023-03-21T08:07:09;101577.49;;;16.16;62.91
63194;BME280;49289;51.670;5.624;2023-03-21T08:08:57;101562.09;;;16.68;61.86
63194;BME280;49289;51.670;5.624;2023-03-21T08:10:46;101583.19;;;16.40;62.78
63194;BME280;49289;51.670;5.624;2023-03-21T08:12:34;101559.31;;;16.51;62.54
63194;BME280;49289;51.670;5.624;2023-03-21T08:14:22;101553.66;;;16.44;62.83
63194;BME280;49289;51.670;5.624;2023-03-21T08:16:11;101562.18;;;16.72;62.68
63194;BME280;49289;51.670;5.624;2023-03-21T08:17:59;101547.66;;;16.71;62.44
63194;BME280;49289;51.670;5.624;2023-03-21T08:19:46;101547.45;;;17.00;61.61
63194;BME280;49289;51.670;5.624;2023-03-21T08:21:33;101540.38;;;16.96;61.60
63194;BME280;49289;51.670;5.624;2023-03-21T08:23:20;101549.81;;;16.80;62.24
63194;BME280;49289;51.670;5.624;2023-03-21T08:25:08;101534.62;;;16.76;62.50
63194;BME280;49289;51.670;5.624;2023-03-21T08:26:54;101528.65;;;16.85;62.04
63194;BME280;49289;51.670;5.624;2023-03-21T08:28:41;101529.56;;;17.14;61.50
63194;BME280;49289;51.670;5.624;2023-03-21T08:30:28;101527.48;;;17.10;61.78
63194;BME280;49289;51.670;5.624;2023-03-21T08:32:16;101542.13;;;16.68;62.80
63194;BME280;49289;51.670;5.624;2023-03-21T08:34:04;101523.55;;;16.71;62.64
63194;BME280;49289;51.670;5.624;2023-03-21T08:35:52;101522.11;;;17.07;62.05
63194;BME280;49289;51.670;5.624;2023-03-21T08:37:40;101536.24;;;17.28;61.85
63194;BME280;49289;51.670;5.624;2023-03-21T08:39:27;101536.47;;;17.34;61.44
63194;BME280;49289;51.670;5.624;2023-03-21T08:41:14;101529.73;;;17.63;60.92
63194;BME280;49289;51.670;5.624;2023-03-21T08:43:01;101513.77;;;17.09;61.44
63194;BME280;49289;51.670;5.624;2023-03-21T08:44:48;101524.97;;;17.48;61.45
63194;BME280;49289;51.670;5.624;2023-03-21T08:46:35;101513.55;;;17.13;60.91
63194;BME280;49289;51.670;5.624;2023-03-21T08:48:22;101527.06;;;17.46;61.38
63194;BME280;49289;51.670;5.624;2023-03-21T08:50:10;101519.14;;;17.51;61.10
63194;BME280;49289;51.670;5.624;2023-03-21T08:52:00;101515.34;;;17.56;60.83
63194;BME280;49289;51.670;5.624;2023-03-21T08:53:48;101523.84;;;17.17;61.10
63194;BME280;49289;51.670;5.624;2023-03-21T08:55:36;101523.09;;;17.37;60.84
63194;BME280;49289;51.670;5.624;2023-03-21T08:57:24;101539.88;;;17.24;61.57
63194;BME280;49289;51.670;5.624;2023-03-21T08:59:12;101536.73;;;17.44;61.19
63194;BME280;49289;51.670;5.624;2023-03-21T09:01:00;101517.66;;;16.99;61.79
63194;BME280;49289;51.670;5.624;2023-03-21T09:02:49;101533.33;;;17.31;61.32
63194;BME280;49289;51.670;5.624;2023-03-21T09:04:37;101508.31;;;17.49;60.91
63194;BME280;49289;51.670;5.624;2023-03-21T09:06:24;101508.19;;;17.38;60.88
63194;BME280;49289;51.670;5.624;2023-03-21T09:08:12;101509.70;;;17.48;60.58
63194;BME280;49289;51.670;5.624;2023-03-21T09:10:01;101505.45;;;17.41;60.69
63194;BME280;49289;51.670;5.624;2023-03-21T09:11:49;101502.89;;;17.56;60.13
63194;BME280;49289;51.670;5.624;2023-03-21T09:13:37;101500.73;;;17.60;60.41
63194;BME280;49289;51.670;5.624;2023-03-21T09:15:26;101499.31;;;17.38;60.37
63194;BME280;49289;51.670;5.624;2023-03-21T09:17:13;101500.73;;;17.28;60.95
63194;BME280;49289;51.670;5.624;2023-03-21T09:19:01;101494.61;;;17.28;60.83
63194;BME280;49289;51.670;5.624;2023-03-21T09:20:49;101495.97;;;17.46;60.51
63194;BME280;49289;51.670;5.624;2023-03-21T09:22:37;101493.31;;;17.43;60.38
63194;BME280;49289;51.670;5.624;2023-03-21T09:24:24;101508.28;;;17.59;60.32
63194;BME280;49289;51.670;5.624;2023-03-21T09:26:11;101490.64;;;17.57;60.36